Time;durP1;ratioP1;P1;durP2;ratioP2;P2;SDS_P1;SDS_P2;PMS_P1;PMS_P2;Temp;Humidity;BMP_temperature;BMP_pressure;BME280_temperature;BME280_humidity;BME280_pressure;Samples;Min_cycle;Max_cycle;Signal;HPM_P1;HPM_P2
2022/01/09 00:01:25;;;;;;;8.27;5.65;;;;;;;;;;5075837;28;20192;-84
2022/01/09 00:03:51;;;;;;;8.73;5.88;;;;;;;;;;5075670;28;20093;-84
2022/01/09 00:06:17;;;;;;;8.68;5.93;;;;;;;;;;5075543;28;20042;-85
2022/01/09 00:08:46;;;;;;;8.02;5.53;;;;;;;;;;5074025;28;20041;-84
2022/01/09 00:11:12;;;;;;;8.45;5.80;;;;;;;;;;5074549;28;20048;-84
2022/01/09 00:13:38;;;;;;;8.75;5.50;;;;;;;;;;5073877;28;20056;-84
2022/01/09 00:16:05;;;;;;;8.50;6.13;;;;;;;;;;5074028;28;20123;-83
2022/01/09 00:18:31;;;;;;;8.93;6.15;;;;;;;;;;5074177;28;20037;-85
2022/01/09 00:20:57;;;;;;;8.25;5.75;;;;;;;;;;5073945;28;20051;-84
2022/01/09 00:23:23;;;;;;;8.63;5.82;;;;;;;;;;5073755;28;20040;-84
2022/01/09 00:25:49;;;;;;;7.93;5.63;;;;;;;;;;5073900;28;20036;-84
2022/01/09 00:28:15;;;;;;;9.27;5.85;;;;;;;;;;5075098;28;20047;-83
2022/01/09 00:30:41;;;;;;;9.45;5.90;;;;;;;;;;5074157;28;20411;-84
2022/01/09 00:33:07;;;;;;;9.57;6.28;;;;;;;;;;5073560;28;20044;-83
2022/01/09 00:35:34;;;;;;;9.32;5.45;;;;;;;;;;5073564;28;20202;-84
2022/01/09 00:38:00;;;;;;;8.73;6.00;;;;;;;;;;5073609;28;20438;-84
2022/01/09 00:40:26;;;;;;;9.25;5.68;;;;;;;;;;5073689;28;20097;-83
2022/01/09 00:42:52;;;;;;;9.32;6.18;;;;;;;;;;5073341;28;20045;-84
2022/01/09 00:45:18;;;;;;;7.05;4.97;;;;;;;;;;5073462;28;20049;-84
2022/01/09 00:47:45;;;;;;;8.10;5.38;;;;;;;;;;5073699;28;20494;-85
2022/01/09 00:50:11;;;;;;;8.45;6.00;;;;;;;;;;5073507;28;20044;-84
2022/01/09 00:52:39;;;;;;;9.60;6.30;;;;;;;;;;5073066;28;20048;-84
2022/01/09 00:55:06;;;;;;;9.00;5.95;;;;;;;;;;5074802;28;20177;-85
2022/01/09 00:57:33;;;;;;;8.73;6.15;;;;;;;;;;5074628;28;20036;-84
2022/01/09 00:59:58;;;;;;;9.18;6.25;;;;;;;;;;5073245;28;20048;-84
2022/01/09 01:02:25;;;;;;;8.25;5.90;;;;;;;;;;5074466;28;20056;-85
2022/01/09 01:04:51;;;;;;;9.40;6.75;;;;;;;;;;5074579;28;20036;-84
2022/01/09 01:07:19;;;;;;;8.85;6.22;;;;;;;;;;5074089;28;20543;-86
2022/01/09 01:09:45;;;;;;;8.63;6.13;;;;;;;;;;5074582;28;20046;-84
2022/01/09 01:12:11;;;;;;;8.18;6.28;;;;;;;;;;5072844;28;20479;-84
2022/01/09 01:14:37;;;;;;;7.90;5.90;;;;;;;;;;5073161;28;20036;-85
2022/01/09 01:17:03;;;;;;;8.38;6.20;;;;;;;;;;5074129;28;20081;-85
2022/01/09 01:19:29;;;;;;;9.65;7.05;;;;;;;;;;5074186;28;20051;-84
2022/01/09 01:21:56;;;;;;;8.95;6.63;;;;;;;;;;5072650;28;20036;-84
2022/01/09 01:24:22;;;;;;;9.45;6.57;;;;;;;;;;5072975;28;20120;-84
2022/01/09 01:26:49;;;;;;;8.93;6.05;;;;;;;;;;5072429;28;20606;-84
2022/01/09 01:29:15;;;;;;;9.70;6.97;;;;;;;;;;5074001;28;20123;-84
2022/01/09 01:31:42;;;;;;;8.30;6.38;;;;;;;;;;5072941;28;20060;-84
2022/01/09 01:34:08;;;;;;;8.77;6.18;;;;;;;;;;5073775;28;20045;-85
2022/01/09 01:36:34;;;;;;;9.35;6.80;;;;;;;;;;5073562;28;20052;-85
2022/01/09 01:39:00;;;;;;;8.88;6.22;;;;;;;;;;5073858;28;20041;-84
2022/01/09 01:41:26;;;;;;;9.30;6.72;;;;;;;;;;5072664;28;20044;-84
2022/01/09 01:43:52;;;;;;;8.50;6.63;;;;;;;;;;5073551;28;20037;-84
2022/01/09 01:46:18;;;;;;;8.95;6.63;;;;;;;;;;5072314;28;20043;-85
2022/01/09 01:48:44;;;;;;;9.50;7.22;;;;;;;;;;5072147;28;20044;-85
2022/01/09 01:51:10;;;;;;;9.15;6.93;;;;;;;;;;5072541;28;20051;-84
2022/01/09 01:53:38;;;;;;;8.60;6.43;;;;;;;;;;5072212;28;20094;-85
2022/01/09 01:56:05;;;;;;;10.82;7.03;;;;;;;;;;5054989;28;20048;-84
2022/01/09 01:58:34;;;;;;;10.40;7.43;;;;;;;;;;5073020;28;20044;-85
2022/01/09 02:01:01;;;;;;;9.52;7.20;;;;;;;;;;5072308;28;20044;-84
2022/01/09 02:03:26;;;;;;;11.20;8.00;;;;;;;;;;5073248;28;20041;-84
2022/01/09 02:05:52;;;;;;;11.63;7.97;;;;;;;;;;5073489;28;20123;-83
2022/01/09 02:08:19;;;;;;;10.50;8.40;;;;;;;;;;5073100;28;20395;-84
2022/01/09 02:10:45;;;;;;;14.60;9.02;;;;;;;;;;5072100;28;20065;-84
2022/01/09 02:13:11;;;;;;;16.15;9.65;;;;;;;;;;5073144;28;20356;-84
2022/01/09 02:15:37;;;;;;;12.38;9.05;;;;;;;;;;5071748;28;20044;-84
2022/01/09 02:18:08;;;;;;;12.93;9.05;;;;;;;;;;5071638;28;20419;-84
2022/01/09 02:20:35;;;;;;;11.63;8.82;;;;;;;;;;5072118;28;20122;-85
2022/01/09 02:23:01;;;;;;;12.07;9.73;;;;;;;;;;5071753;28;20043;-84
2022/01/09 02:25:27;;;;;;;12.02;9.55;;;;;;;;;;5071762;28;20123;-85
2022/01/09 02:27:53;;;;;;;13.38;9.98;;;;;;;;;;5072752;28;20040;-84
2022/01/09 02:30:20;;;;;;;13.85;9.60;;;;;;;;;;5071721;28;20040;-84
2022/01/09 02:32:46;;;;;;;14.23;10.05;;;;;;;;;;5072816;28;20127;-84
2022/01/09 02:35:12;;;;;;;13.40;10.30;;;;;;;;;;5071368;28;20072;-84
2022/01/09 02:37:38;;;;;;;12.32;10.27;;;;;;;;;;5071979;28;20075;-85
2022/01/09 02:40:05;;;;;;;12.85;10.48;;;;;;;;;;5073106;28;20032;-84
2022/01/09 02:42:32;;;;;;;13.13;10.38;;;;;;;;;;5072698;28;20036;-84
2022/01/09 02:44:58;;;;;;;13.95;10.70;;;;;;;;;;5073001;28;20041;-84
2022/01/09 02:47:25;;;;;;;12.32;9.70;;;;;;;;;;5071503;28;20037;-84
2022/01/09 02:49:53;;;;;;;14.25;10.93;;;;;;;;;;5071628;28;20166;-85
2022/01/09 02:52:31;;;;;;;14.45;10.98;;;;;;;;;;5071531;28;20053;-83
2022/01/09 02:55:12;;;;;;;13.60;10.43;;;;;;;;;;5071523;28;20048;-84
2022/01/09 02:57:42;;;;;;;14.75;10.48;;;;;;;;;;5071260;28;20045;-85
2022/01/09 03:00:10;;;;;;;13.63;10.30;;;;;;;;;;5072890;28;20047;-84
2022/01/09 03:02:38;;;;;;;12.73;9.07;;;;;;;;;;5072402;28;20527;-85
2022/01/09 03:05:04;;;;;;;15.45;10.00;;;;;;;;;;5072482;28;20036;-85
2022/01/09 03:07:30;;;;;;;12.73;8.95;;;;;;;;;;5072848;28;20506;-85
2022/01/09 03:09:56;;;;;;;11.02;7.25;;;;;;;;;;5075384;28;20453;-84
2022/01/09 03:12:23;;;;;;;13.63;7.72;;;;;;;;;;5075409;28;20116;-85
2022/01/09 03:14:49;;;;;;;10.95;6.47;;;;;;;;;;5076410;28;20116;-84
2022/01/09 03:17:15;;;;;;;10.57;5.82;;;;;;;;;;5075188;28;20460;-85
2022/01/09 03:19:41;;;;;;;12.98;6.63;;;;;;;;;;5075239;28;20057;-85
2022/01/09 03:22:07;;;;;;;12.50;5.55;;;;;;;;;;5075408;28;20566;-84
2022/01/09 03:24:34;;;;;;;10.98;6.45;;;;;;;;;;5076098;28;20043;-85
2022/01/09 03:27:01;;;;;;;16.15;6.22;;;;;;;;;;5075030;28;20110;-84
2022/01/09 03:29:27;;;;;;;13.93;5.78;;;;;;;;;;5075059;28;20495;-85
2022/01/09 03:31:53;;;;;;;11.88;5.38;;;;;;;;;;5074964;28;20058;-83
2022/01/09 03:34:19;;;;;;;8.98;4.05;;;;;;;;;;5076122;28;20044;-84
2022/01/09 03:36:45;;;;;;;14.82;4.68;;;;;;;;;;5075831;28;20056;-84
2022/01/09 03:39:11;;;;;;;12.18;5.05;;;;;;;;;;5074847;28;20045;-83
2022/01/09 03:41:37;;;;;;;12.80;6.00;;;;;;;;;;5074680;28;20488;-85
2022/01/09 03:44:03;;;;;;;14.60;6.00;;;;;;;;;;5075971;28;20051;-84
2022/01/09 03:46:29;;;;;;;14.10;5.97;;;;;;;;;;5076107;28;20043;-84
2022/01/09 03:48:56;;;;;;;14.00;5.70;;;;;;;;;;5075630;28;20040;-85
2022/01/09 03:51:25;;;;;;;14.75;6.53;;;;;;;;;;5075985;28;20067;-84
2022/01/09 03:53:51;;;;;;;20.77;5.95;;;;;;;;;;5075962;28;20075;-84
2022/01/09 03:56:17;;;;;;;17.33;6.85;;;;;;;;;;5074503;28;20044;-84
2022/01/09 03:58:43;;;;;;;15.93;6.88;;;;;;;;;;5074205;28;20528;-84
2022/01/09 04:01:09;;;;;;;16.65;6.30;;;;;;;;;;5074402;28;20139;-83
2022/01/09 04:03:35;;;;;;;17.55;5.93;;;;;;;;;;5074135;28;20119;-84
2022/01/09 04:06:02;;;;;;;13.50;4.50;;;;;;;;;;5074527;28;20036;-85
2022/01/09 04:08:28;;;;;;;14.75;3.78;;;;;;;;;;5074289;28;20364;-84
2022/01/09 04:10:54;;;;;;;13.13;2.80;;;;;;;;;;5074168;28;20040;-84
2022/01/09 04:13:21;;;;;;;15.70;3.60;;;;;;;;;;5074118;28;20093;-84
2022/01/09 04:15:49;;;;;;;18.02;3.58;;;;;;;;;;5074020;28;20040;-84
2022/01/09 04:18:19;;;;;;;12.48;3.50;;;;;;;;;;5074071;28;20047;-84
2022/01/09 04:20:45;;;;;;;16.25;3.72;;;;;;;;;;5072910;28;20045;-84
2022/01/09 04:23:12;;;;;;;18.60;4.40;;;;;;;;;;5074191;28;20432;-84
2022/01/09 04:25:38;;;;;;;19.85;4.45;;;;;;;;;;5075249;28;20048;-85
2022/01/09 04:28:04;;;;;;;18.10;3.72;;;;;;;;;;5074087;28;20161;-84
2022/01/09 04:30:30;;;;;;;22.35;4.63;;;;;;;;;;5073601;28;20466;-84
2022/01/09 04:32:56;;;;;;;25.75;4.88;;;;;;;;;;5075175;28;20047;-84
2022/01/09 04:35:22;;;;;;;23.92;4.78;;;;;;;;;;5074754;28;20062;-84
2022/01/09 04:37:49;;;;;;;28.08;5.13;;;;;;;;;;5073777;28;20411;-84
2022/01/09 04:40:17;;;;;;;32.45;4.75;;;;;;;;;;5074945;28;20094;-84
2022/01/09 04:42:46;;;;;;;37.80;5.05;;;;;;;;;;5075067;28;20040;-84
2022/01/09 04:45:15;;;;;;;32.90;4.63;;;;;;;;;;5073394;28;20044;-85
2022/01/09 04:47:44;;;;;;;39.47;5.50;;;;;;;;;;5073676;28;20048;-84
2022/01/09 04:50:14;;;;;;;28.60;4.13;;;;;;;;;;5074505;28;20119;-84
2022/01/09 04:52:41;;;;;;;32.30;5.70;;;;;;;;;;5074930;28;20041;-85
2022/01/09 04:55:07;;;;;;;30.05;4.55;;;;;;;;;;5073108;28;20049;-84
2022/01/09 04:57:33;;;;;;;30.25;4.72;;;;;;;;;;5073386;28;20048;-84
2022/01/09 04:59:59;;;;;;;33.72;4.85;;;;;;;;;;5073283;28;20372;-84
2022/01/09 05:02:25;;;;;;;35.78;5.47;;;;;;;;;;5074797;28;20032;-85
2022/01/09 05:04:51;;;;;;;35.33;4.72;;;;;;;;;;5072936;28;20041;-84
2022/01/09 05:07:17;;;;;;;32.88;4.65;;;;;;;;;;5073203;28;20040;-85
2022/01/09 05:09:43;;;;;;;36.42;5.10;;;;;;;;;;5073019;28;20040;-89
2022/01/09 05:12:09;;;;;;;35.53;5.00;;;;;;;;;;5073199;28;20367;-85
2022/01/09 05:14:35;;;;;;;28.88;4.50;;;;;;;;;;5056085;28;20044;-84
2022/01/09 05:17:01;;;;;;;29.27;5.00;;;;;;;;;;5072838;28;20041;-84
2022/01/09 05:19:33;;;;;;;34.55;5.53;;;;;;;;;;5073961;28;20115;-85
2022/01/09 05:22:00;;;;;;;32.55;4.82;;;;;;;;;;5072878;28;20044;-85
2022/01/09 05:24:26;;;;;;;20.33;4.25;;;;;;;;;;5074022;28;20076;-84
2022/01/09 05:26:53;;;;;;;28.05;4.32;;;;;;;;;;5072702;28;20048;-85
2022/01/09 05:29:19;;;;;;;35.35;5.47;;;;;;;;;;5072493;28;20044;-85
2022/01/09 05:31:47;;;;;;;30.52;5.03;;;;;;;;;;5072616;28;20396;-85
2022/01/09 05:34:13;;;;;;;26.95;5.10;;;;;;;;;;5072326;28;20094;-85
2022/01/09 05:36:39;;;;;;;30.48;4.40;;;;;;;;;;5072293;28;20453;-84
2022/01/09 05:39:05;;;;;;;26.52;3.83;;;;;;;;;;5074041;28;20099;-84
2022/01/09 05:41:31;;;;;;;28.90;4.10;;;;;;;;;;5073781;28;20047;-85
2022/01/09 05:43:57;;;;;;;25.52;4.03;;;;;;;;;;5073607;28;20040;-84
2022/01/09 05:46:23;;;;;;;29.30;4.32;;;;;;;;;;5073697;28;20036;-84
2022/01/09 05:48:49;;;;;;;25.90;3.90;;;;;;;;;;5072308;28;20052;-83
2022/01/09 05:51:15;;;;;;;26.38;3.55;;;;;;;;;;5073475;28;20124;-84
2022/01/09 05:53:41;;;;;;;27.67;5.43;;;;;;;;;;5073482;28;20059;-84
2022/01/09 05:56:07;;;;;;;24.90;4.05;;;;;;;;;;5072120;28;20480;-85
2022/01/09 05:58:35;;;;;;;25.13;4.03;;;;;;;;;;5072231;28;20046;-84
2022/01/09 06:01:01;;;;;;;29.25;4.10;;;;;;;;;;5055474;28;20036;-86
2022/01/09 06:03:27;;;;;;;23.55;3.25;;;;;;;;;;5072304;28;20051;-84
2022/01/09 06:05:53;;;;;;;24.33;3.97;;;;;;;;;;5073337;28;20040;-84
2022/01/09 06:08:19;;;;;;;21.60;3.30;;;;;;;;;;5073439;28;20048;-85
2022/01/09 06:10:45;;;;;;;26.63;3.33;;;;;;;;;;5071974;28;20076;-85
2022/01/09 06:13:11;;;;;;;27.67;3.22;;;;;;;;;;5073267;28;20036;-85
2022/01/09 06:15:37;;;;;;;29.33;4.05;;;;;;;;;;5073044;28;20040;-85
2022/01/09 06:18:03;;;;;;;22.77;4.65;;;;;;;;;;5073031;28;20414;-84
2022/01/09 06:20:29;;;;;;;25.40;3.00;;;;;;;;;;5073003;28;20246;-85
2022/01/09 06:22:55;;;;;;;30.35;3.38;;;;;;;;;;5071850;28;20142;-84
2022/01/09 06:25:22;;;;;;;18.25;3.53;;;;;;;;;;5071515;28;20068;-84
2022/01/09 06:27:48;;;;;;;29.02;3.45;;;;;;;;;;5072772;28;20093;-84
2022/01/09 06:30:14;;;;;;;19.10;4.13;;;;;;;;;;5072658;28;20044;-85
2022/01/09 06:32:40;;;;;;;22.13;3.60;;;;;;;;;;5071874;28;20427;-85
2022/01/09 06:35:06;;;;;;;19.90;3.67;;;;;;;;;;5072712;28;20040;-84
2022/01/09 06:37:33;;;;;;;24.35;2.90;;;;;;;;;;5071509;28;20049;-87
2022/01/09 06:39:59;;;;;;;23.38;2.70;;;;;;;;;;5072754;28;20078;-83
2022/01/09 06:42:25;;;;;;;20.73;3.00;;;;;;;;;;5071118;28;20076;-85
2022/01/09 06:44:51;;;;;;;25.48;3.42;;;;;;;;;;5072755;28;20036;-85
2022/01/09 06:47:17;;;;;;;22.58;3.25;;;;;;;;;;5071315;28;20040;-85
2022/01/09 06:49:44;;;;;;;22.73;4.13;;;;;;;;;;5071613;28;20388;-84
2022/01/09 06:52:10;;;;;;;23.08;3.47;;;;;;;;;;5071571;28;20433;-85
2022/01/09 06:54:36;;;;;;;24.92;4.05;;;;;;;;;;5071271;28;20127;-85
2022/01/09 06:57:02;;;;;;;27.50;3.20;;;;;;;;;;5075839;28;20395;-84
2022/01/09 06:59:28;;;;;;;24.17;3.35;;;;;;;;;;5088019;28;20055;-85
2022/01/09 07:01:54;;;;;;;20.17;2.78;;;;;;;;;;5088245;28;20044;-84
2022/01/09 07:04:20;;;;;;;24.63;3.72;;;;;;;;;;5088236;28;20043;-85
2022/01/09 07:06:46;;;;;;;18.10;3.00;;;;;;;;;;5089236;28;20086;-84
2022/01/09 07:09:12;;;;;;;16.30;2.85;;;;;;;;;;5087968;28;20084;-84
2022/01/09 07:11:38;;;;;;;18.73;2.60;;;;;;;;;;5086225;28;20040;-85
2022/01/09 07:14:04;;;;;;;20.90;3.50;;;;;;;;;;5067723;28;20059;-85
2022/01/09 07:16:30;;;;;;;18.05;3.20;;;;;;;;;;5087478;28;20032;-84
2022/01/09 07:18:56;;;;;;;19.98;3.05;;;;;;;;;;5089355;28;20050;-84
2022/01/09 07:21:22;;;;;;;16.58;2.80;;;;;;;;;;5087821;28;20462;-85
2022/01/09 07:23:48;;;;;;;18.00;3.00;;;;;;;;;;5088031;28;20097;-84
2022/01/09 07:26:14;;;;;;;18.02;2.97;;;;;;;;;;5087645;28;20047;-84
2022/01/09 07:28:40;;;;;;;14.73;2.80;;;;;;;;;;5087863;28;20135;-86
2022/01/09 07:31:06;;;;;;;22.25;2.92;;;;;;;;;;5087656;28;20059;-85
2022/01/09 07:33:32;;;;;;;19.25;3.53;;;;;;;;;;5087701;28;20422;-85
2022/01/09 07:35:58;;;;;;;22.92;3.30;;;;;;;;;;5087428;28;20066;-84
2022/01/09 07:38:24;;;;;;;21.05;3.28;;;;;;;;;;5087676;28;20077;-84
2022/01/09 07:40:51;;;;;;;25.27;3.35;;;;;;;;;;5087488;28;20048;-84
2022/01/09 07:43:17;;;;;;;16.95;2.67;;;;;;;;;;5069986;28;20048;-85
2022/01/09 07:45:43;;;;;;;17.88;2.80;;;;;;;;;;5088648;28;20036;-84
2022/01/09 07:48:09;;;;;;;23.75;3.53;;;;;;;;;;5087529;28;20119;-85
2022/01/09 07:50:35;;;;;;;20.23;4.05;;;;;;;;;;5087657;28;20423;-85
2022/01/09 07:53:02;;;;;;;14.20;2.47;;;;;;;;;;5087739;28;20437;-84
2022/01/09 07:55:28;;;;;;;14.70;2.58;;;;;;;;;;5090983;28;20044;-84
2022/01/09 07:57:54;;;;;;;14.75;2.75;;;;;;;;;;5074306;28;20491;-84
2022/01/09 08:00:20;;;;;;;19.73;3.00;;;;;;;;;;5091489;28;20387;-84
2022/01/09 08:02:47;;;;;;;15.60;2.63;;;;;;;;;;5091001;28;20040;-85
2022/01/09 08:05:13;;;;;;;10.05;2.40;;;;;;;;;;5091136;28;20044;-85
2022/01/09 08:07:40;;;;;;;16.05;2.55;;;;;;;;;;5074314;28;20040;-84
2022/01/09 08:10:06;;;;;;;15.50;2.83;;;;;;;;;;5090949;28;20040;-85
2022/01/09 08:12:32;;;;;;;22.52;3.60;;;;;;;;;;5077360;28;20050;-84
2022/01/09 08:14:58;;;;;;;18.55;2.88;;;;;;;;;;5070734;28;20051;-85
2022/01/09 08:17:24;;;;;;;19.55;2.60;;;;;;;;;;5070508;28;20484;-85
2022/01/09 08:19:50;;;;;;;20.48;2.72;;;;;;;;;;5073868;28;20039;-85
2022/01/09 08:22:16;;;;;;;14.32;2.15;;;;;;;;;;5090894;28;20361;-85
2022/01/09 08:24:42;;;;;;;15.05;2.25;;;;;;;;;;5090720;28;20039;-84
2022/01/09 08:27:08;;;;;;;13.38;3.03;;;;;;;;;;5091914;28;20048;-85
2022/01/09 08:29:35;;;;;;;10.70;2.03;;;;;;;;;;5092229;28;20044;-84
2022/01/09 08:32:01;;;;;;;16.92;2.20;;;;;;;;;;5090731;28;20418;-84
2022/01/09 08:34:27;;;;;;;16.85;2.17;;;;;;;;;;5092247;28;20063;-85
2022/01/09 08:36:53;;;;;;;11.05;2.20;;;;;;;;;;5093575;28;20127;-84
2022/01/09 08:39:19;;;;;;;14.32;1.92;;;;;;;;;;5092456;28;20103;-84
2022/01/09 08:41:46;;;;;;;14.35;2.40;;;;;;;;;;5093490;28;20033;-84
2022/01/09 08:44:11;;;;;;;13.65;2.53;;;;;;;;;;5093676;28;20044;-85
2022/01/09 08:46:38;;;;;;;11.20;1.58;;;;;;;;;;5093577;28;20096;-84
2022/01/09 08:49:05;;;;;;;13.38;1.83;;;;;;;;;;5093742;28;20439;-84
2022/01/09 08:51:31;;;;;;;12.40;1.63;;;;;;;;;;5093389;28;20055;-84
2022/01/09 08:53:58;;;;;;;10.27;1.90;;;;;;;;;;5093615;28;20039;-84
2022/01/09 08:56:25;;;;;;;12.15;1.90;;;;;;;;;;5093238;28;20043;-84
2022/01/09 08:58:51;;;;;;;16.70;2.47;;;;;;;;;;5093605;28;20044;-84
2022/01/09 09:01:17;;;;;;;12.82;1.95;;;;;;;;;;5094639;28;20085;-84
2022/01/09 09:03:44;;;;;;;12.63;1.83;;;;;;;;;;5095171;28;20083;-84
2022/01/09 09:06:11;;;;;;;11.43;1.65;;;;;;;;;;5093278;28;20052;-84
2022/01/09 09:08:38;;;;;;;9.90;1.35;;;;;;;;;;5094830;28;20053;-86
2022/01/09 09:11:04;;;;;;;10.70;1.85;;;;;;;;;;5095345;28;20047;-84
2022/01/09 09:13:30;;;;;;;9.68;1.70;;;;;;;;;;5092981;28;20131;-85
2022/01/09 09:15:56;;;;;;;13.45;1.77;;;;;;;;;;5094366;28;20123;-84
2022/01/09 09:18:22;;;;;;;13.25;1.67;;;;;;;;;;5094471;28;20044;-84
2022/01/09 09:20:50;;;;;;;11.48;1.48;;;;;;;;;;5094330;28;20403;-84
2022/01/09 09:23:16;;;;;;;16.48;2.08;;;;;;;;;;5092599;28;20039;-84
2022/01/09 09:25:42;;;;;;;16.60;1.83;;;;;;;;;;5093183;28;20054;-84
2022/01/09 09:28:07;;;;;;;12.77;1.85;;;;;;;;;;5092700;28;20036;-83
2022/01/09 09:30:33;;;;;;;12.60;1.60;;;;;;;;;;5094395;28;20158;-85
2022/01/09 09:32:59;;;;;;;10.15;1.52;;;;;;;;;;5092753;28;20047;-85
2022/01/09 09:35:25;;;;;;;12.07;2.00;;;;;;;;;;5092560;28;20507;-84
2022/01/09 09:37:51;;;;;;;9.25;2.00;;;;;;;;;;5094100;28;20202;-84
2022/01/09 09:40:18;;;;;;;11.02;1.73;;;;;;;;;;5092666;28;20035;-89
2022/01/09 09:42:43;;;;;;;12.57;1.83;;;;;;;;;;5075433;28;20517;-86
2022/01/09 09:45:11;;;;;;;16.02;2.15;;;;;;;;;;5092925;28;20131;-85
2022/01/09 09:47:38;;;;;;;15.07;2.15;;;;;;;;;;5092207;28;20040;-85
2022/01/09 09:50:06;;;;;;;13.35;2.47;;;;;;;;;;5093870;28;20043;-85
2022/01/09 09:52:32;;;;;;;13.30;1.85;;;;;;;;;;5092221;28;20040;-84
2022/01/09 09:54:58;;;;;;;14.13;2.00;;;;;;;;;;5092428;28;20044;-85
2022/01/09 09:57:24;;;;;;;13.68;1.90;;;;;;;;;;5092053;28;20040;-84
2022/01/09 09:59:58;;;;;;;18.65;3.08;;;;;;;;;;5093541;28;20545;-84
2022/01/09 10:02:24;;;;;;;11.70;3.00;;;;;;;;;;5092275;28;20092;-84
2022/01/09 10:05:04;;;;;;;15.15;2.38;;;;;;;;;;5093379;28;20115;-84
2022/01/09 10:07:32;;;;;;;15.85;2.47;;;;;;;;;;5093447;28;20044;-84
2022/01/09 10:09:59;;;;;;;13.60;2.28;;;;;;;;;;5093545;28;20499;-84
2022/01/09 10:12:27;;;;;;;11.52;1.63;;;;;;;;;;5092174;28;20487;-85
2022/01/09 10:14:53;;;;;;;13.82;1.95;;;;;;;;;;5091967;28;20040;-85
2022/01/09 10:17:20;;;;;;;10.10;2.03;;;;;;;;;;5091168;28;20044;-85
2022/01/09 10:19:50;;;;;;;9.70;1.83;;;;;;;;;;5092012;28;20090;-84
2022/01/09 10:22:22;;;;;;;16.10;3.05;;;;;;;;;;5093549;28;20040;-85
2022/01/09 10:24:49;;;;;;;16.02;2.20;;;;;;;;;;5092257;28;20062;-84
2022/01/09 10:27:35;;;;;;;10.25;1.42;;;;;;;;;;5091645;28;20048;-85
2022/01/09 10:30:02;;;;;;;11.75;1.52;;;;;;;;;;5075123;28;20047;-84
2022/01/09 10:32:31;;;;;;;9.25;1.98;;;;;;;;;;5074803;28;20209;-84
2022/01/09 10:35:04;;;;;;;15.30;1.65;;;;;;;;;;5093369;28;20426;-84
2022/01/09 10:37:31;;;;;;;12.90;1.85;;;;;;;;;;5092724;28;20495;-85
2022/01/09 10:39:59;;;;;;;12.60;1.95;;;;;;;;;;5091759;28;20106;-84
2022/01/09 10:42:25;;;;;;;15.73;1.92;;;;;;;;;;5091834;28;20075;-85
2022/01/09 10:44:51;;;;;;;12.05;1.60;;;;;;;;;;5092818;28;20436;-84
2022/01/09 10:47:17;;;;;;;10.20;1.80;;;;;;;;;;5091900;28;20090;-85
2022/01/09 10:49:51;;;;;;;11.98;1.70;;;;;;;;;;5091615;28;20044;-84
2022/01/09 10:52:22;;;;;;;11.02;1.60;;;;;;;;;;5091744;28;20082;-85
2022/01/09 10:54:49;;;;;;;8.52;1.92;;;;;;;;;;5092992;28;20040;-85
2022/01/09 10:57:15;;;;;;;11.00;1.70;;;;;;;;;;5091386;28;20078;-85
2022/01/09 10:59:41;;;;;;;11.10;2.05;;;;;;;;;;5091591;28;20036;-84
2022/01/09 11:02:09;;;;;;;9.40;1.73;;;;;;;;;;5091801;28;20369;-85
2022/01/09 11:04:35;;;;;;;10.23;2.08;;;;;;;;;;5074663;28;20041;-85
2022/01/09 11:07:01;;;;;;;9.25;1.30;;;;;;;;;;5091443;28;20048;-86
2022/01/09 11:09:29;;;;;;;9.57;1.90;;;;;;;;;;5092726;28;20036;-85
2022/01/09 11:11:56;;;;;;;12.82;2.15;;;;;;;;;;5074470;28;20051;-85
2022/01/09 11:14:23;;;;;;;16.42;1.70;;;;;;;;;;5092405;28;20387;-84
2022/01/09 11:16:54;;;;;;;17.60;2.05;;;;;;;;;;5092518;28;20044;-84
2022/01/09 11:19:21;;;;;;;10.23;1.63;;;;;;;;;;5091165;28;20158;-84
2022/01/09 11:21:52;;;;;;;11.23;1.70;;;;;;;;;;5091284;28;20036;-85
2022/01/09 11:24:18;;;;;;;14.07;1.67;;;;;;;;;;5091101;28;20036;-85
2022/01/09 11:26:44;;;;;;;12.50;1.48;;;;;;;;;;5091341;28;20047;-85
2022/01/09 11:29:15;;;;;;;8.88;1.25;;;;;;;;;;5092408;28;20051;-85
2022/01/09 11:31:55;;;;;;;12.25;1.95;;;;;;;;;;5095436;28;20052;-85
2022/01/09 11:34:30;;;;;;;12.90;1.27;;;;;;;;;;5094966;28;20044;-85
2022/01/09 11:37:14;;;;;;;9.15;1.10;;;;;;;;;;5095126;28;20048;-85
2022/01/09 11:39:43;;;;;;;7.88;1.35;;;;;;;;;;5096419;28;20077;-86
2022/01/09 11:42:11;;;;;;;6.10;1.27;;;;;;;;;;5094981;28;20130;-85
2022/01/09 11:44:53;;;;;;;10.57;1.55;;;;;;;;;;5096167;28;20038;-86
2022/01/09 11:47:21;;;;;;;11.60;2.38;;;;;;;;;;5095259;28;20082;-86
2022/01/09 11:49:53;;;;;;;10.43;2.33;;;;;;;;;;5094760;28;20101;-85
2022/01/09 11:52:20;;;;;;;16.50;2.00;;;;;;;;;;5096062;28;20044;-85
2022/01/09 11:54:47;;;;;;;14.32;2.03;;;;;;;;;;5094611;28;20434;-85
2022/01/09 11:57:18;;;;;;;8.50;1.80;;;;;;;;;;5094580;28;20402;-85
2022/01/09 11:59:51;;;;;;;14.95;2.20;;;;;;;;;;5094473;28;20043;-84
2022/01/09 12:02:17;;;;;;;13.15;2.00;;;;;;;;;;5094574;28;20040;-84
2022/01/09 12:04:45;;;;;;;10.60;2.38;;;;;;;;;;5094504;28;20032;-84
2022/01/09 12:07:29;;;;;;;12.32;2.38;;;;;;;;;;5094533;28;20089;-84
2022/01/09 12:09:55;;;;;;;10.63;1.65;;;;;;;;;;5094598;28;20070;-85
2022/01/09 12:12:22;;;;;;;10.00;1.80;;;;;;;;;;5095941;28;20040;-85
2022/01/09 12:14:54;;;;;;;13.07;1.98;;;;;;;;;;5094318;28;20097;-85
2022/01/09 12:17:25;;;;;;;15.50;2.28;;;;;;;;;;5095503;28;20065;-85
2022/01/09 12:20:11;;;;;;;15.80;2.10;;;;;;;;;;5077207;28;20483;-85
2022/01/09 12:22:40;;;;;;;10.33;1.47;;;;;;;;;;5095580;28;20120;-86
2022/01/09 12:25:07;;;;;;;10.15;1.70;;;;;;;;;;5094037;28;20078;-89
2022/01/09 12:27:38;;;;;;;12.02;2.17;;;;;;;;;;5094104;28;20071;-84
2022/01/09 12:30:04;;;;;;;14.38;1.73;;;;;;;;;;5095002;28;20089;-84
2022/01/09 12:32:39;;;;;;;9.43;1.73;;;;;;;;;;5093957;28;20075;-84
2022/01/09 12:35:16;;;;;;;9.13;1.67;;;;;;;;;;5095143;28;20047;-85
2022/01/09 12:37:46;;;;;;;13.65;1.75;;;;;;;;;;5093911;28;20074;-85
2022/01/09 12:40:14;;;;;;;10.35;1.70;;;;;;;;;;5094789;28;20071;-85
2022/01/09 12:42:43;;;;;;;8.55;1.58;;;;;;;;;;5093885;28;20071;-85
2022/01/09 12:45:09;;;;;;;12.52;1.80;;;;;;;;;;5094963;28;20169;-85
2022/01/09 12:47:39;;;;;;;9.93;1.50;;;;;;;;;;5093823;28;20078;-84
2022/01/09 12:50:06;;;;;;;14.60;2.03;;;;;;;;;;5094912;28;20040;-84
2022/01/09 12:52:32;;;;;;;10.32;1.70;;;;;;;;;;5095128;28;20044;-85
2022/01/09 12:55:08;;;;;;;10.98;1.60;;;;;;;;;;5093478;28;20173;-85
2022/01/09 12:57:50;;;;;;;11.52;2.28;;;;;;;;;;5093532;28;20512;-85
2022/01/09 13:00:16;;;;;;;13.20;2.20;;;;;;;;;;5096039;28;20032;-85
2022/01/09 13:02:51;;;;;;;11.40;2.08;;;;;;;;;;5093460;28;20142;-85
2022/01/09 13:05:20;;;;;;;12.73;1.85;;;;;;;;;;5093457;28;20048;-85
2022/01/09 13:07:46;;;;;;;7.60;2.00;;;;;;;;;;5094827;28;20044;-84
2022/01/09 13:10:15;;;;;;;6.60;1.95;;;;;;;;;;5093062;28;20044;-85
2022/01/09 13:12:58;;;;;;;13.45;1.90;;;;;;;;;;5093397;28;20482;-84
2022/01/09 13:15:34;;;;;;;6.13;1.30;;;;;;;;;;5094429;28;20070;-85
2022/01/09 13:18:01;;;;;;;8.35;1.80;;;;;;;;;;5093321;28;20040;-84
2022/01/09 13:20:27;;;;;;;12.52;1.60;;;;;;;;;;5094356;28;20031;-85
2022/01/09 13:23:03;;;;;;;9.73;1.48;;;;;;;;;;5092968;28;20139;-85
2022/01/09 13:25:29;;;;;;;12.73;1.60;;;;;;;;;;5092965;28;20055;-85
2022/01/09 13:27:55;;;;;;;8.82;1.45;;;;;;;;;;5093060;28;20036;-84
2022/01/09 13:30:22;;;;;;;9.75;2.03;;;;;;;;;;5092602;28;20040;-85
2022/01/09 13:32:48;;;;;;;11.52;1.88;;;;;;;;;;5092806;28;20088;-85
2022/01/09 13:35:14;;;;;;;7.95;1.52;;;;;;;;;;5092394;28;20101;-84
2022/01/09 13:37:40;;;;;;;10.68;1.48;;;;;;;;;;5092684;28;20436;-85
2022/01/09 13:40:07;;;;;;;9.57;1.30;;;;;;;;;;5092714;28;20440;-84
2022/01/09 13:42:33;;;;;;;7.00;1.30;;;;;;;;;;5094009;28;20118;-85
2022/01/09 13:45:08;;;;;;;7.93;1.50;;;;;;;;;;5092396;28;20491;-85
2022/01/09 13:47:42;;;;;;;13.68;1.75;;;;;;;;;;5092589;28;20057;-85
2022/01/09 13:50:12;;;;;;;11.00;1.35;;;;;;;;;;5093747;28;20036;-84
2022/01/09 13:52:38;;;;;;;7.45;1.48;;;;;;;;;;5091671;28;20083;-85
2022/01/09 13:55:10;;;;;;;10.55;1.48;;;;;;;;;;5092270;28;20082;-85
2022/01/09 13:57:51;;;;;;;10.55;1.55;;;;;;;;;;5093772;28;20058;-85
2022/01/09 14:00:21;;;;;;;9.23;1.23;;;;;;;;;;5092434;28;20487;-85
2022/01/09 14:02:48;;;;;;;8.88;1.50;;;;;;;;;;5092536;28;20047;-84
2022/01/09 14:05:16;;;;;;;10.98;1.58;;;;;;;;;;5092459;28;20365;-86
2022/01/09 14:07:46;;;;;;;10.50;1.73;;;;;;;;;;5092336;28;20048;-85
2022/01/09 14:10:12;;;;;;;7.72;1.10;;;;;;;;;;5074940;28;20154;-85
2022/01/09 14:12:39;;;;;;;6.43;1.30;;;;;;;;;;5092157;28;20057;-86
2022/01/09 14:15:15;;;;;;;8.35;0.95;;;;;;;;;;5094351;28;20051;-86
2022/01/09 14:17:46;;;;;;;9.07;1.13;;;;;;;;;;5091940;28;20044;-85
2022/01/09 14:20:19;;;;;;;8.57;1.20;;;;;;;;;;5093307;28;20047;-85
2022/01/09 14:22:48;;;;;;;7.18;0.90;;;;;;;;;;5093269;28;20040;-85
2022/01/09 14:25:24;;;;;;;9.90;1.33;;;;;;;;;;5091892;28;20040;-86
2022/01/09 14:27:50;;;;;;;5.47;1.15;;;;;;;;;;5093300;28;20071;-85
2022/01/09 14:30:25;;;;;;;9.18;1.45;;;;;;;;;;5093026;28;20040;-85
2022/01/09 14:33:05;;;;;;;9.23;1.50;;;;;;;;;;5091799;28;20048;-86
2022/01/09 14:35:34;;;;;;;5.93;0.80;;;;;;;;;;5092814;28;20135;-85